sensor_id;sensor_type;location;lat;lon;timestamp;pressure;altitude;pressure_sealevel;temperature;humidity
5574;BME280;2563;52.242;7.956;2024-03-25T00:00:31;99531.50;;;5.46;100.00
5574;BME280;2563;52.242;7.956;2024-03-25T00:02:56;99530.72;;;5.44;100.00
5574;BME280;2563;52.242;7.956;2024-03-25T00:05:21;99537.56;;;5.42;100.00
5574;BME280;2563;52.242;7.956;2024-03-25T00:07:48;99539.28;;;5.41;100.00
5574;BME280;2563;52.242;7.956;2024-03-25T00:10:14;99535.81;;;5.44;100.00
5574;BME280;2563;52.242;7.956;2024-03-25T00:12:39;99538.38;;;5.44;100.00
5574;BME280;2563;52.242;7.956;2024-03-25T00:15:05;99541.78;;;5.43;100.00
5574;BME280;2563;52.242;7.956;2024-03-25T00:17:30;99538.41;;;5.41;100.00
5574;BME280;2563;52.242;7.956;2024-03-25T00:19:56;99536.69;;;5.43;100.00
5574;BME280;2563;52.242;7.956;2024-03-25T00:22:22;99534.94;;;5.45;100.00
5574;BME280;2563;52.242;7.956;2024-03-25T00:24:50;99536.69;;;5.43;100.00
5574;BME280;2563;52.242;7.956;2024-03-25T00:27:16;99542.63;;;5.43;100.00
5574;BME280;2563;52.242;7.956;2024-03-25T00:29:42;99535.84;;;5.42;100.00
5574;BME280;2563;52.242;7.956;2024-03-25T00:32:08;99525.63;;;5.42;100.00
5574;BME280;2563;52.242;7.956;2024-03-25T00:34:33;99529.91;;;5.42;100.00
5574;BME280;2563;52.242;7.956;2024-03-25T00:36:59;99529.91;;;5.42;100.00
5574;BME280;2563;52.242;7.956;2024-03-25T00:39:25;99524.81;;;5.42;100.00
5574;BME280;2563;52.242;7.956;2024-03-25T00:41:51;99520.53;;;5.42;100.00
5574;BME280;2563;52.242;7.956;2024-03-25T00:44:17;99518.81;;;5.43;100.00
5574;BME280;2563;52.242;7.956;2024-03-25T00:46:42;99518.00;;;5.41;100.00
5574;BME280;2563;52.242;7.956;2024-03-25T00:49:08;99512.91;;;5.41;100.00
5574;BME280;2563;52.242;7.956;2024-03-25T00:51:34;99512.94;;;5.39;100.00
5574;BME280;2563;52.242;7.956;2024-03-25T00:53:59;99504.44;;;5.39;100.00
5574;BME280;2563;52.242;7.956;2024-03-25T00:56:25;99506.13;;;5.40;100.00
5574;BME280;2563;52.242;7.956;2024-03-25T00:58:50;99511.22;;;5.40;100.00
5574;BME280;2563;52.242;7.956;2024-03-25T01:01:15;99504.38;;;5.42;100.00
5574;BME280;2563;52.242;7.956;2024-03-25T01:03:41;99507.88;;;5.38;100.00
5574;BME280;2563;52.242;7.956;2024-03-25T01:06:06;99511.22;;;5.41;100.00
5574;BME280;2563;52.242;7.956;2024-03-25T01:08:32;99512.09;;;5.39;100.00
5574;BME280;2563;52.242;7.956;2024-03-25T01:10:57;99512.97;;;5.38;100.00
5574;BME280;2563;52.242;7.956;2024-03-25T01:13:22;99506.97;;;5.39;100.00
5574;BME280;2563;52.242;7.956;2024-03-25T01:15:48;99514.69;;;5.37;100.00
5574;BME280;2563;52.242;7.956;2024-03-25T01:18:13;99517.25;;;5.37;100.00
5574;BME280;2563;52.242;7.956;2024-03-25T01:20:38;99512.97;;;5.38;100.00
5574;BME280;2563;52.242;7.956;2024-03-25T01:23:04;99512.13;;;5.37;100.00
5574;BME280;2563;52.242;7.956;2024-03-25T01:25:30;99513.84;;;5.37;100.00
5574;BME280;2563;52.242;7.956;2024-03-25T01:27:55;99513.06;;;5.33;100.00
5574;BME280;2563;52.242;7.956;2024-03-25T01:30:21;99523.25;;;5.35;100.00
5574;BME280;2563;52.242;7.956;2024-03-25T01:32:47;99526.72;;;5.30;100.00
5574;BME280;2563;52.242;7.956;2024-03-25T01:35:14;99524.16;;;5.32;100.00
5574;BME280;2563;52.242;7.956;2024-03-25T01:37:40;99526.72;;;5.30;100.00
5574;BME280;2563;52.242;7.956;2024-03-25T01:40:07;99519.94;;;5.29;100.00
5574;BME280;2563;52.242;7.956;2024-03-25T01:42:32;99529.25;;;5.30;100.00
5574;BME280;2563;52.242;7.956;2024-03-25T01:44:58;99530.16;;;5.29;100.00
5574;BME280;2563;52.242;7.956;2024-03-25T01:47:24;99533.47;;;5.31;100.00
5574;BME280;2563;52.242;7.956;2024-03-25T01:49:49;99531.88;;;5.27;100.00
5574;BME280;2563;52.242;7.956;2024-03-25T01:52:19;99538.72;;;5.25;100.00
5574;BME280;2563;52.242;7.956;2024-03-25T01:54:45;99546.41;;;5.24;100.00
5574;BME280;2563;52.242;7.956;2024-03-25T01:57:11;99543.00;;;5.23;100.00
5574;BME280;2563;52.242;7.956;2024-03-25T01:59:38;99543.00;;;5.23;100.00
5574;BME280;2563;52.242;7.956;2024-03-25T02:02:04;99545.50;;;5.26;100.00
5574;BME280;2563;52.242;7.956;2024-03-25T02:04:31;99545.56;;;5.22;100.00
5574;BME280;2563;52.242;7.956;2024-03-25T02:06:56;99554.94;;;5.21;100.00
5574;BME280;2563;52.242;7.956;2024-03-25T02:09:23;99554.09;;;5.21;100.00
5574;BME280;2563;52.242;7.956;2024-03-25T02:11:49;99563.44;;;5.22;100.00
5574;BME280;2563;52.242;7.956;2024-03-25T02:14:15;99564.28;;;5.22;100.00
5574;BME280;2563;52.242;7.956;2024-03-25T02:16:41;99567.63;;;5.26;100.00
5574;BME280;2563;52.242;7.956;2024-03-25T02:19:07;99564.25;;;5.24;100.00
5574;BME280;2563;52.242;7.956;2024-03-25T02:21:35;99572.78;;;5.24;100.00
5574;BME280;2563;52.242;7.956;2024-03-25T02:24:04;99571.94;;;5.22;100.00
5574;BME280;2563;52.242;7.956;2024-03-25T02:26:34;99580.44;;;5.21;100.00
5574;BME280;2563;52.242;7.956;2024-03-25T02:28:59;99579.63;;;5.21;100.00
5574;BME280;2563;52.242;7.956;2024-03-25T02:31:24;99579.63;;;5.19;100.00
5574;BME280;2563;52.242;7.956;2024-03-25T02:33:49;99582.22;;;5.18;100.00
5574;BME280;2563;52.242;7.956;2024-03-25T02:36:15;99593.28;;;5.18;100.00
5574;BME280;2563;52.242;7.956;2024-03-25T02:38:40;99591.56;;;5.19;100.00
5574;BME280;2563;52.242;7.956;2024-03-25T02:41:06;99586.50;;;5.17;100.00
5574;BME280;2563;52.242;7.956;2024-03-25T02:43:31;99596.69;;;5.17;100.00
5574;BME280;2563;52.242;7.956;2024-03-25T02:45:57;99589.06;;;5.16;100.00
5574;BME280;2563;52.242;7.956;2024-03-25T02:48:22;99589.91;;;5.16;100.00
5574;BME280;2563;52.242;7.956;2024-03-25T02:50:48;99593.34;;;5.14;100.00
5574;BME280;2563;52.242;7.956;2024-03-25T02:53:13;99581.47;;;5.13;100.00
5574;BME280;2563;52.242;7.956;2024-03-25T02:55:38;99592.56;;;5.10;100.00
5574;BME280;2563;52.242;7.956;2024-03-25T02:58:04;99598.47;;;5.12;100.00
5574;BME280;2563;52.242;7.956;2024-03-25T03:00:29;99600.22;;;5.10;100.00
5574;BME280;2563;52.242;7.956;2024-03-25T03:02:54;99601.97;;;5.06;100.00
5574;BME280;2563;52.242;7.956;2024-03-25T03:05:19;99615.69;;;5.01;100.00
5574;BME280;2563;52.242;7.956;2024-03-25T03:07:45;99624.31;;;4.90;100.00
5574;BME280;2563;52.242;7.956;2024-03-25T03:10:10;99632.16;;;4.81;100.00
5574;BME280;2563;52.242;7.956;2024-03-25T03:12:36;99632.28;;;4.72;100.00
5574;BME280;2563;52.242;7.956;2024-03-25T03:15:01;99634.91;;;4.67;100.00
5574;BME280;2563;52.242;7.956;2024-03-25T03:17:26;99641.00;;;4.56;100.00
5574;BME280;2563;52.242;7.956;2024-03-25T03:19:52;99638.50;;;4.53;100.00
5574;BME280;2563;52.242;7.956;2024-03-25T03:22:17;99645.28;;;4.54;100.00
5574;BME280;2563;52.242;7.956;2024-03-25T03:24:42;99633.22;;;4.65;100.00
5574;BME280;2563;52.242;7.956;2024-03-25T03:27:07;99634.81;;;4.72;100.00
5574;BME280;2563;52.242;7.956;2024-03-25T03:29:33;99622.91;;;4.74;100.00
5574;BME280;2563;52.242;7.956;2024-03-25T03:31:58;99623.69;;;4.78;100.00
5574;BME280;2563;52.242;7.956;2024-03-25T03:34:24;99622.81;;;4.79;100.00
5574;BME280;2563;52.242;7.956;2024-03-25T03:36:49;99621.91;;;4.83;100.00
5574;BME280;2563;52.242;7.956;2024-03-25T03:39:15;99627.91;;;4.80;100.00
5574;BME280;2563;52.242;7.956;2024-03-25T03:41:41;99618.50;;;4.82;100.00
5574;BME280;2563;52.242;7.956;2024-03-25T03:44:06;99626.16;;;4.82;100.00
5574;BME280;2563;52.242;7.956;2024-03-25T03:46:31;99621.94;;;4.81;100.00
5574;BME280;2563;52.242;7.956;2024-03-25T03:48:57;99628.72;;;4.81;100.00
5574;BME280;2563;52.242;7.956;2024-03-25T03:51:22;99621.97;;;4.80;100.00
5574;BME280;2563;52.242;7.956;2024-03-25T03:53:48;99625.34;;;4.79;100.00
5574;BME280;2563;52.242;7.956;2024-03-25T03:56:13;99621.16;;;4.76;100.00
5574;BME280;2563;52.242;7.956;2024-03-25T03:58:38;99621.16;;;4.76;100.00
5574;BME280;2563;52.242;7.956;2024-03-25T04:01:04;99619.44;;;4.78;100.00
5574;BME280;2563;52.242;7.956;2024-03-25T04:03:30;99617.75;;;4.77;100.00
5574;BME280;2563;52.242;7.956;2024-03-25T04:05:55;99621.16;;;4.76;100.00
5574;BME280;2563;52.242;7.956;2024-03-25T04:08:21;99610.94;;;4.76;100.00
5574;BME280;2563;52.242;7.956;2024-03-25T04:10:46;99618.66;;;4.75;100.00
5574;BME280;2563;52.242;7.956;2024-03-25T04:13:12;99613.56;;;4.73;100.00
5574;BME280;2563;52.242;7.956;2024-03-25T04:15:42;99616.09;;;4.75;100.00
5574;BME280;2563;52.242;7.956;2024-03-25T04:18:08;99611.00;;;4.75;100.00
5574;BME280;2563;52.242;7.956;2024-03-25T04:20:41;99616.09;;;4.73;100.00
5574;BME280;2563;52.242;7.956;2024-03-25T04:23:07;99614.44;;;4.72;100.00
5574;BME280;2563;52.242;7.956;2024-03-25T04:25:33;99628.03;;;4.71;100.00
5574;BME280;2563;52.242;7.956;2024-03-25T04:27:58;99614.44;;;4.71;100.00
5574;BME280;2563;52.242;7.956;2024-03-25T04:30:24;99617.84;;;4.71;100.00
5574;BME280;2563;52.242;7.956;2024-03-25T04:32:50;99620.44;;;4.69;100.00
5574;BME280;2563;52.242;7.956;2024-03-25T04:35:15;99626.34;;;4.70;100.00
5574;BME280;2563;52.242;7.956;2024-03-25T04:37:41;99624.66;;;4.71;100.00
5574;BME280;2563;52.242;7.956;2024-03-25T04:40:07;99625.53;;;4.69;100.00
5574;BME280;2563;52.242;7.956;2024-03-25T04:42:33;99627.19;;;4.69;100.00
5574;BME280;2563;52.242;7.956;2024-03-25T04:44:58;99622.09;;;4.69;100.00
5574;BME280;2563;52.242;7.956;2024-03-25T04:47:24;99633.13;;;4.71;100.00
5574;BME280;2563;52.242;7.956;2024-03-25T04:49:49;99625.47;;;4.73;100.00
5574;BME280;2563;52.242;7.956;2024-03-25T04:52:15;99617.81;;;4.74;100.00
5574;BME280;2563;52.242;7.956;2024-03-25T04:54:44;99619.53;;;4.72;100.00
5574;BME280;2563;52.242;7.956;2024-03-25T04:57:09;99620.38;;;4.73;100.00
5574;BME280;2563;52.242;7.956;2024-03-25T04:59:35;99620.38;;;4.73;100.00
5574;BME280;2563;52.242;7.956;2024-03-25T05:02:00;99621.22;;;4.73;100.00
5574;BME280;2563;52.242;7.956;2024-03-25T05:04:25;99616.16;;;4.70;100.00
5574;BME280;2563;52.242;7.956;2024-03-25T05:06:51;99617.88;;;4.69;100.00
5574;BME280;2563;52.242;7.956;2024-03-25T05:09:16;99618.66;;;4.72;100.00
5574;BME280;2563;52.242;7.956;2024-03-25T05:11:42;99620.34;;;4.74;100.00
5574;BME280;2563;52.242;7.956;2024-03-25T05:14:08;99611.00;;;4.73;100.00
5574;BME280;2563;52.242;7.956;2024-03-25T05:16:33;99616.94;;;4.74;100.00
5574;BME280;2563;52.242;7.956;2024-03-25T05:18:58;99620.34;;;4.74;100.00
5574;BME280;2563;52.242;7.956;2024-03-25T05:21:24;99611.00;;;4.75;100.00
5574;BME280;2563;52.242;7.956;2024-03-25T05:23:49;99612.66;;;4.77;100.00
5574;BME280;2563;52.242;7.956;2024-03-25T05:26:15;99614.31;;;4.78;100.00
5574;BME280;2563;52.242;7.956;2024-03-25T05:28:40;99620.25;;;4.79;100.00
5574;BME280;2563;52.242;7.956;2024-03-25T05:31:09;99617.63;;;4.83;100.00
5574;BME280;2563;52.242;7.956;2024-03-25T05:33:35;99615.97;;;4.82;100.00
5574;BME280;2563;52.242;7.956;2024-03-25T05:36:01;99620.16;;;4.86;100.00
5574;BME280;2563;52.242;7.956;2024-03-25T05:38:27;99620.13;;;4.88;100.00
5574;BME280;2563;52.242;7.956;2024-03-25T05:40:52;99621.84;;;4.87;100.00
5574;BME280;2563;52.242;7.956;2024-03-25T05:43:18;99618.50;;;4.82;100.00
5574;BME280;2563;52.242;7.956;2024-03-25T05:45:54;99628.91;;;4.70;100.00
5574;BME280;2563;52.242;7.956;2024-03-25T05:48:20;99631.59;;;4.61;100.00
5574;BME280;2563;52.242;7.956;2024-03-25T05:50:46;99636.50;;;4.73;100.00
5574;BME280;2563;52.242;7.956;2024-03-25T05:53:11;99631.94;;;4.94;100.00
5574;BME280;2563;52.242;7.956;2024-03-25T05:55:37;99625.63;;;5.16;100.00
5574;BME280;2563;52.242;7.956;2024-03-25T05:58:02;99629.59;;;5.32;100.00
5574;BME280;2563;52.242;7.956;2024-03-25T06:00:29;99622.81;;;5.76;100.00
5574;BME280;2563;52.242;7.956;2024-03-25T06:02:55;99630.69;;;5.64;100.00
5574;BME280;2563;52.242;7.956;2024-03-25T06:05:21;99626.97;;;5.36;100.00
5574;BME280;2563;52.242;7.956;2024-03-25T06:07:46;99638.97;;;5.30;100.00
5574;BME280;2563;52.242;7.956;2024-03-25T06:10:11;99638.97;;;5.30;100.00
5574;BME280;2563;52.242;7.956;2024-03-25T06:12:37;99647.44;;;5.32;100.00
5574;BME280;2563;52.242;7.956;2024-03-25T06:15:02;99645.66;;;5.38;100.00
5574;BME280;2563;52.242;7.956;2024-03-25T06:17:28;99657.66;;;5.32;100.00
5574;BME280;2563;52.242;7.956;2024-03-25T06:19:53;99667.72;;;5.39;100.00
5574;BME280;2563;52.242;7.956;2024-03-25T06:22:18;99666.94;;;5.37;100.00
5574;BME280;2563;52.242;7.956;2024-03-25T06:24:44;99668.44;;;5.48;100.00
5574;BME280;2563;52.242;7.956;2024-03-25T06:27:09;99669.00;;;5.64;100.00
5574;BME280;2563;52.242;7.956;2024-03-25T06:29:35;99671.22;;;5.83;100.00
5574;BME280;2563;52.242;7.956;2024-03-25T06:32:01;99677.06;;;5.88;100.00
5574;BME280;2563;52.242;7.956;2024-03-25T06:34:45;99687.81;;;6.07;100.00
5574;BME280;2563;52.242;7.956;2024-03-25T06:37:10;99700.66;;;6.02;100.00
5574;BME280;2563;52.242;7.956;2024-03-25T06:39:35;99711.16;;;5.85;100.00
5574;BME280;2563;52.242;7.956;2024-03-25T06:42:01;99711.78;;;6.00;100.00
5574;BME280;2563;52.242;7.956;2024-03-25T06:44:27;99720.84;;;6.14;100.00
5574;BME280;2563;52.242;7.956;2024-03-25T06:46:52;99731.81;;;6.21;100.00
5574;BME280;2563;52.242;7.956;2024-03-25T06:49:17;99751.44;;;6.17;100.00
5574;BME280;2563;52.242;7.956;2024-03-25T06:51:43;99760.91;;;6.14;100.00
5574;BME280;2563;52.242;7.956;2024-03-25T06:54:08;99721.66;;;9.71;100.00
5574;BME280;2563;52.242;7.956;2024-03-25T06:56:33;99768.16;;;12.13;100.00
5574;BME280;2563;52.242;7.956;2024-03-25T06:58:59;99867.22;;;12.09;100.00
5574;BME280;2563;52.242;7.956;2024-03-25T07:01:24;99943.63;;;12.54;100.00
5574;BME280;2563;52.242;7.956;2024-03-25T07:03:49;99997.41;;;12.65;100.00
5574;BME280;2563;52.242;7.956;2024-03-25T07:06:15;100016.84;;;13.33;100.00
5574;BME280;2563;52.242;7.956;2024-03-25T07:08:41;100032.94;;;9.58;100.00
5574;BME280;2563;52.242;7.956;2024-03-25T07:11:06;100041.03;;;8.04;100.00
5574;BME280;2563;52.242;7.956;2024-03-25T07:13:31;100035.91;;;7.65;100.00
5574;BME280;2563;52.242;7.956;2024-03-25T07:15:57;100038.69;;;7.55;100.00
5574;BME280;2563;52.242;7.956;2024-03-25T07:18:22;100043.09;;;7.46;100.00
5574;BME280;2563;52.242;7.956;2024-03-25T07:20:47;100041.94;;;7.63;100.00
5574;BME280;2563;52.242;7.956;2024-03-25T07:23:13;100040.75;;;7.79;100.00
5574;BME280;2563;52.242;7.956;2024-03-25T07:25:38;100037.84;;;7.95;100.00
5574;BME280;2563;52.242;7.956;2024-03-25T07:28:05;100045.19;;;7.71;100.00
5574;BME280;2563;52.242;7.956;2024-03-25T07:30:30;100036.84;;;7.61;100.00
5574;BME280;2563;52.242;7.956;2024-03-25T07:32:58;100028.56;;;7.89;100.00
5574;BME280;2563;52.242;7.956;2024-03-25T07:35:24;100027.59;;;7.95;100.00
5574;BME280;2563;52.242;7.956;2024-03-25T07:37:50;100023.06;;;7.67;100.00
5574;BME280;2563;52.242;7.956;2024-03-25T07:40:21;100025.09;;;7.92;100.00
5574;BME280;2563;52.242;7.956;2024-03-25T07:42:48;100029.31;;;7.94;100.00
5574;BME280;2563;52.242;7.956;2024-03-25T07:45:14;100027.34;;;8.79;100.00
5574;BME280;2563;52.242;7.956;2024-03-25T07:47:39;100026.75;;;8.69;100.00
5574;BME280;2563;52.242;7.956;2024-03-25T07:50:05;100029.28;;;8.70;100.00
5574;BME280;2563;52.242;7.956;2024-03-25T07:52:31;100023.84;;;8.48;100.00
5574;BME280;2563;52.242;7.956;2024-03-25T07:54:57;100030.13;;;8.71;100.00
5574;BME280;2563;52.242;7.956;2024-03-25T07:57:22;100022.78;;;10.12;100.00
5574;BME280;2563;52.242;7.956;2024-03-25T07:59:48;100020.38;;;11.12;100.00
5574;BME280;2563;52.242;7.956;2024-03-25T08:02:14;100025.13;;;10.48;100.00
5574;BME280;2563;52.242;7.956;2024-03-25T08:04:39;100034.91;;;12.94;100.00
5574;BME280;2563;52.242;7.956;2024-03-25T08:07:05;100033.03;;;13.18;100.00
5574;BME280;2563;52.242;7.956;2024-03-25T08:09:31;100033.53;;;12.85;100.00
5574;BME280;2563;52.242;7.956;2024-03-25T08:11:56;100040.28;;;11.79;100.00
5574;BME280;2563;52.242;7.956;2024-03-25T08:14:21;100052.59;;;12.40;100.00
5574;BME280;2563;52.242;7.956;2024-03-25T08:16:47;100051.00;;;13.42;100.00
5574;BME280;2563;52.242;7.956;2024-03-25T08:19:12;100052.03;;;11.64;100.00
5574;BME280;2563;52.242;7.956;2024-03-25T08:21:38;100058.53;;;10.49;100.00
5574;BME280;2563;52.242;7.956;2024-03-25T08:24:03;100068.03;;;9.89;100.00
5574;BME280;2563;52.242;7.956;2024-03-25T08:26:29;100075.34;;;9.73;100.00
5574;BME280;2563;52.242;7.956;2024-03-25T08:28:54;100068.28;;;9.80;100.00
5574;BME280;2563;52.242;7.956;2024-03-25T08:31:20;100072.41;;;9.56;100.00
5574;BME280;2563;52.242;7.956;2024-03-25T08:33:45;100078.94;;;9.68;100.00
5574;BME280;2563;52.242;7.956;2024-03-25T08:36:10;100076.25;;;9.71;100.00
5574;BME280;2563;52.242;7.956;2024-03-25T08:38:36;100081.72;;;9.60;100.00
5574;BME280;2563;52.242;7.956;2024-03-25T08:41:01;100077.25;;;9.96;100.00
5574;BME280;2563;52.242;7.956;2024-03-25T08:43:26;100069.84;;;10.97;100.00
5574;BME280;2563;52.242;7.956;2024-03-25T08:45:52;100058.88;;;12.33;100.00
5574;BME280;2563;52.242;7.956;2024-03-25T08:48:18;100062.13;;;12.60;100.00
5574;BME280;2563;52.242;7.956;2024-03-25T08:50:43;100056.41;;;12.94;100.00
5574;BME280;2563;52.242;7.956;2024-03-25T08:53:08;100053.22;;;13.49;100.00
5574;BME280;2563;52.242;7.956;2024-03-25T08:55:34;100054.66;;;12.95;100.00
5574;BME280;2563;52.242;7.956;2024-03-25T08:57:59;100050.88;;;12.19;100.00
5574;BME280;2563;52.242;7.956;2024-03-25T09:00:25;100049.63;;;12.07;100.00
5574;BME280;2563;52.242;7.956;2024-03-25T09:02:51;100050.38;;;12.73;100.00
5574;BME280;2563;52.242;7.956;2024-03-25T09:05:16;100046.25;;;13.70;100.00
5574;BME280;2563;52.242;7.956;2024-03-25T09:07:44;100043.00;;;13.26;100.00
5574;BME280;2563;52.242;7.956;2024-03-25T09:10:10;100052.63;;;12.61;100.00
5574;BME280;2563;52.242;7.956;2024-03-25T09:12:55;100064.63;;;10.98;100.00
5574;BME280;2563;52.242;7.956;2024-03-25T09:15:20;100069.69;;;10.20;100.00
5574;BME280;2563;52.242;7.956;2024-03-25T09:17:45;100070.59;;;10.47;100.00
5574;BME280;2563;52.242;7.956;2024-03-25T09:20:11;100069.56;;;11.29;100.00
5574;BME280;2563;52.242;7.956;2024-03-25T09:22:45;100064.47;;;12.00;100.00
5574;BME280;2563;52.242;7.956;2024-03-25T09:25:10;100070.72;;;12.17;100.00
5574;BME280;2563;52.242;7.956;2024-03-25T09:27:35;100059.91;;;13.34;100.00
5574;BME280;2563;52.242;7.956;2024-03-25T09:30:01;100058.63;;;13.64;100.00
5574;BME280;2563;52.242;7.956;2024-03-25T09:32:29;100063.78;;;13.04;100.00
5574;BME280;2563;52.242;7.956;2024-03-25T09:34:55;100045.69;;;13.82;100.00
5574;BME280;2563;52.242;7.956;2024-03-25T09:37:21;100034.59;;;14.17;100.00
5574;BME280;2563;52.242;7.956;2024-03-25T09:39:46;100045.03;;;13.19;100.00
5574;BME280;2563;52.242;7.956;2024-03-25T09:42:14;100046.78;;;12.13;100.00
5574;BME280;2563;52.242;7.956;2024-03-25T09:44:40;100050.28;;;11.65;100.00
5574;BME280;2563;52.242;7.956;2024-03-25T09:47:06;100061.44;;;11.65;100.00
5574;BME280;2563;52.242;7.956;2024-03-25T09:49:32;100066.78;;;11.36;100.00
5574;BME280;2563;52.242;7.956;2024-03-25T09:51:58;100073.00;;;10.80;100.00
5574;BME280;2563;52.242;7.956;2024-03-25T09:54:23;100074.41;;;10.06;100.00
5574;BME280;2563;52.242;7.956;2024-03-25T09:56:49;100080.00;;;10.20;100.00
5574;BME280;2563;52.242;7.956;2024-03-25T09:59:15;100087.69;;;9.61;100.00
5574;BME280;2563;52.242;7.956;2024-03-25T10:01:40;100082.16;;;10.04;100.00
5574;BME280;2563;52.242;7.956;2024-03-25T10:04:05;100081.63;;;11.04;100.00
5574;BME280;2563;52.242;7.956;2024-03-25T10:06:31;100072.91;;;10.81;100.00
5574;BME280;2563;52.242;7.956;2024-03-25T10:08:57;100057.06;;;11.91;100.00
5574;BME280;2563;52.242;7.956;2024-03-25T10:11:23;100052.13;;;12.73;100.00
5574;BME280;2563;52.242;7.956;2024-03-25T10:13:48;100053.97;;;12.05;100.00
5574;BME280;2563;52.242;7.956;2024-03-25T10:16:13;100057.88;;;11.93;100.00
5574;BME280;2563;52.242;7.956;2024-03-25T10:18:39;100060.75;;;11.60;100.00
5574;BME280;2563;52.242;7.956;2024-03-25T10:21:10;100050.06;;;11.71;100.00
5574;BME280;2563;52.242;7.956;2024-03-25T10:23:35;100046.75;;;11.67;100.00
5574;BME280;2563;52.242;7.956;2024-03-25T10:26:05;100054.31;;;11.48;100.00
5574;BME280;2563;52.242;7.956;2024-03-25T10:28:31;100047.25;;;11.77;100.00
5574;BME280;2563;52.242;7.956;2024-03-25T10:31:03;100056.03;;;11.48;100.00
5574;BME280;2563;52.242;7.956;2024-03-25T10:33:29;100062.88;;;10.99;100.00
5574;BME280;2563;52.242;7.956;2024-03-25T10:35:55;100063.22;;;10.90;100.00
5574;BME280;2563;52.242;7.956;2024-03-25T10:38:23;100070.84;;;10.39;100.00
5574;BME280;2563;52.242;7.956;2024-03-25T10:40:50;100074.19;;;10.13;100.00
5574;BME280;2563;52.242;7.956;2024-03-25T10:43:17;100077.69;;;10.11;100.00
5574;BME280;2563;52.242;7.956;2024-03-25T10:45:47;100078.28;;;10.19;100.00
5574;BME280;2563;52.242;7.956;2024-03-25T10:48:15;100067.53;;;10.62;100.00
5574;BME280;2563;52.242;7.956;2024-03-25T10:50:43;100066.19;;;11.04;100.00
5574;BME280;2563;52.242;7.956;2024-03-25T10:53:10;100057.47;;;11.32;100.00
5574;BME280;2563;52.242;7.956;2024-03-25T10:55:36;100063.13;;;10.93;100.00
5574;BME280;2563;52.242;7.956;2024-03-25T10:58:03;100054.34;;;11.23;100.00
5574;BME280;2563;52.242;7.956;2024-03-25T11:00:29;100041.63;;;11.66;100.00
5574;BME280;2563;52.242;7.956;2024-03-25T11:02:55;100034.31;;;12.24;100.00
5574;BME280;2563;52.242;7.956;2024-03-25T11:05:21;100033.47;;;12.24;100.00
5574;BME280;2563;52.242;7.956;2024-03-25T11:07:47;100028.53;;;11.96;100.00
5574;BME280;2563;52.242;7.956;2024-03-25T11:10:13;100034.66;;;11.93;100.00
5574;BME280;2563;52.242;7.956;2024-03-25T11:12:41;100022.19;;;11.81;100.00
5574;BME280;2563;52.242;7.956;2024-03-25T11:15:07;100023.00;;;11.59;100.00
5574;BME280;2563;52.242;7.956;2024-03-25T11:17:33;100024.63;;;11.38;100.00
5574;BME280;2563;52.242;7.956;2024-03-25T11:20:12;100026.94;;;10.96;100.00
5574;BME280;2563;52.242;7.956;2024-03-25T11:22:52;100028.03;;;10.63;100.00
5574;BME280;2563;52.242;7.956;2024-03-25T11:25:20;100038.97;;;9.87;100.00
5574;BME280;2563;52.242;7.956;2024-03-25T11:27:46;100029.00;;;10.05;100.00
5574;BME280;2563;52.242;7.956;2024-03-25T11:30:13;100031.66;;;10.58;100.00
5574;BME280;2563;52.242;7.956;2024-03-25T11:32:52;100029.41;;;10.99;100.00
5574;BME280;2563;52.242;7.956;2024-03-25T11:35:18;100016.13;;;11.35;100.00
5574;BME280;2563;52.242;7.956;2024-03-25T11:37:43;100007.13;;;11.70;100.00
5574;BME280;2563;52.242;7.956;2024-03-25T11:40:10;100003.94;;;11.87;100.00
5574;BME280;2563;52.242;7.956;2024-03-25T11:42:38;100000.84;;;11.77;100.00
5574;BME280;2563;52.242;7.956;2024-03-25T11:45:05;99989.06;;;12.16;100.00
5574;BME280;2563;52.242;7.956;2024-03-25T11:47:31;99982.47;;;12.08;100.00
5574;BME280;2563;52.242;7.956;2024-03-25T11:49:56;99978.09;;;11.65;100.00
5574;BME280;2563;52.242;7.956;2024-03-25T11:52:21;99974.28;;;13.22;100.00
5574;BME280;2563;52.242;7.956;2024-03-25T11:54:54;99959.81;;;14.47;100.00
5574;BME280;2563;52.242;7.956;2024-03-25T11:57:20;99953.69;;;13.96;100.00
5574;BME280;2563;52.242;7.956;2024-03-25T11:59:46;99954.63;;;12.98;100.00
5574;BME280;2563;52.242;7.956;2024-03-25T12:02:15;99953.41;;;13.07;100.00
5574;BME280;2563;52.242;7.956;2024-03-25T12:04:42;99961.59;;;12.96;100.00
5574;BME280;2563;52.242;7.956;2024-03-25T12:07:11;99956.59;;;12.52;100.00
5574;BME280;2563;52.242;7.956;2024-03-25T12:09:36;99949.09;;;12.46;100.00
5574;BME280;2563;52.242;7.956;2024-03-25T12:12:20;99952.09;;;12.58;100.00
5574;BME280;2563;52.242;7.956;2024-03-25T12:14:45;99948.94;;;12.71;100.00
5574;BME280;2563;52.242;7.956;2024-03-25T12:17:11;99943.84;;;13.28;100.00
5574;BME280;2563;52.242;7.956;2024-03-25T12:19:36;99933.16;;;13.36;100.00
5574;BME280;2563;52.242;7.956;2024-03-25T12:22:02;99926.88;;;13.79;100.00
5574;BME280;2563;52.242;7.956;2024-03-25T12:24:30;99926.75;;;14.52;100.00
5574;BME280;2563;52.242;7.956;2024-03-25T12:26:55;99911.56;;;13.92;100.00
5574;BME280;2563;52.242;7.956;2024-03-25T12:29:20;99911.44;;;13.59;100.00
5574;BME280;2563;52.242;7.956;2024-03-25T12:31:56;99920.75;;;13.80;100.00
5574;BME280;2563;52.242;7.956;2024-03-25T12:34:22;99887.88;;;14.70;100.00
5574;BME280;2563;52.242;7.956;2024-03-25T12:36:48;99889.53;;;14.55;100.00
5574;BME280;2563;52.242;7.956;2024-03-25T12:39:17;99885.72;;;14.44;100.00
5574;BME280;2563;52.242;7.956;2024-03-25T12:41:44;99887.91;;;14.00;100.00
5574;BME280;2563;52.242;7.956;2024-03-25T12:44:12;99883.16;;;13.37;100.00
5574;BME280;2563;52.242;7.956;2024-03-25T12:46:37;99881.69;;;13.87;100.00
5574;BME280;2563;52.242;7.956;2024-03-25T12:49:04;99872.53;;;14.14;100.00
5574;BME280;2563;52.242;7.956;2024-03-25T12:51:29;99871.22;;;14.91;100.00
5574;BME280;2563;52.242;7.956;2024-03-25T12:53:55;99856.63;;;15.68;100.00
5574;BME280;2563;52.242;7.956;2024-03-25T12:56:20;99848.84;;;16.14;100.00
5574;BME280;2563;52.242;7.956;2024-03-25T12:58:45;99841.44;;;16.22;100.00
5574;BME280;2563;52.242;7.956;2024-03-25T13:01:11;99829.84;;;16.42;100.00
5574;BME280;2563;52.242;7.956;2024-03-25T13:03:36;99832.06;;;17.06;100.00
5574;BME280;2563;52.242;7.956;2024-03-25T13:06:01;99816.16;;;17.25;100.00
5574;BME280;2563;52.242;7.956;2024-03-25T13:08:27;99824.75;;;16.12;100.00